createdAt,value
2018-08-13T00:00:37.278Z,20.80
2018-08-13T00:03:05.581Z,20.70
2018-08-13T00:05:33.557Z,20.90
2018-08-13T00:08:02.400Z,20.80
2018-08-13T00:10:30.430Z,20.80
2018-08-13T00:12:58.496Z,20.90
2018-08-13T00:15:26.468Z,20.70
2018-08-13T00:17:54.518Z,20.70
2018-08-13T00:20:22.544Z,20.80
2018-08-13T00:22:50.511Z,20.80
2018-08-13T00:25:18.610Z,20.90
2018-08-13T00:27:46.625Z,20.90
2018-08-13T00:30:14.588Z,20.80
2018-08-13T00:32:42.886Z,20.70
2018-08-13T00:35:10.858Z,20.60
2018-08-13T00:37:38.891Z,20.50
2018-08-13T00:40:09.567Z,20.40
2018-08-13T00:42:37.620Z,20.50
2018-08-13T00:45:06.878Z,20.50
2018-08-13T00:47:34.850Z,20.50
2018-08-13T00:50:02.904Z,20.50
2018-08-13T00:52:31.154Z,20.50
2018-08-13T00:54:59.117Z,20.60
2018-08-13T00:57:27.084Z,20.50
2018-08-13T00:59:55.068Z,20.60
2018-08-13T01:02:23.052Z,20.60
2018-08-13T01:04:51.105Z,20.50
2018-08-13T01:07:19.089Z,20.50
2018-08-13T01:09:47.065Z,20.40
2018-08-13T01:12:15.039Z,20.30
2018-08-13T01:14:43.083Z,20.40
2018-08-13T01:17:11.036Z,20.50
2018-08-13T01:19:39.124Z,20.40
2018-08-13T01:22:07.100Z,20.30
2018-08-13T01:24:35.073Z,20.40
2018-08-13T01:27:03.055Z,20.50
2018-08-13T01:29:31.344Z,20.30
2018-08-13T01:31:59.376Z,20.20
2018-08-13T01:34:27.439Z,20.30
2018-08-13T01:36:55.424Z,20.30
2018-08-13T01:39:23.387Z,20.30
2018-08-13T01:41:51.358Z,20.30
2018-08-13T01:44:19.344Z,20.30
2018-08-13T01:46:47.355Z,20.30
2018-08-13T01:49:15.323Z,20.30
2018-08-13T01:51:43.563Z,20.30
2018-08-13T01:54:18.072Z,20.40
2018-08-13T01:56:46.044Z,20.40
2018-08-13T01:59:14.340Z,20.20
2018-08-13T02:01:42.438Z,20.10
2018-08-13T02:04:10.368Z,20.10
2018-08-13T02:06:38.345Z,20.20
2018-08-13T02:09:08.324Z,20.10
2018-08-13T02:11:36.279Z,20.10
2018-08-13T02:14:04.941Z,20.20
2018-08-13T02:16:32.956Z,20.10
2018-08-13T02:19:00.908Z,20.00
2018-08-13T02:21:28.931Z,19.80
2018-08-13T02:23:57.067Z,19.90
2018-08-13T02:26:25.124Z,20.00
2018-08-13T02:28:53.168Z,20.10
2018-08-13T02:31:21.170Z,19.90
2018-08-13T02:33:49.183Z,19.80
2018-08-13T02:36:17.288Z,19.90
2018-08-13T02:38:45.248Z,20.00
2018-08-13T02:41:13.250Z,20.10
2018-08-13T02:43:41.240Z,20.20
2018-08-13T02:46:09.295Z,20.20
2018-08-13T02:48:37.632Z,20.20
2018-08-13T02:51:05.714Z,20.10
2018-08-13T02:53:33.711Z,20.10
2018-08-13T02:56:01.955Z,20.20
2018-08-13T02:58:29.901Z,20.10
2018-08-13T03:00:57.862Z,20.10
2018-08-13T03:03:25.853Z,20.10
2018-08-13T03:06:00.675Z,20.10
2018-08-13T03:08:28.992Z,20.00
2018-08-13T03:10:56.943Z,20.00
2018-08-13T03:13:24.904Z,19.90
2018-08-13T03:15:52.887Z,19.90
2018-08-13T03:18:21.091Z,19.90
2018-08-13T03:20:49.033Z,20.00
2018-08-13T03:23:17.027Z,20.00
2018-08-13T03:25:45.037Z,20.00
2018-08-13T03:28:12.987Z,19.90
2018-08-13T03:30:40.994Z,19.90
2018-08-13T03:33:08.955Z,20.00
2018-08-13T03:35:37.335Z,20.00
2018-08-13T03:38:05.372Z,20.00
2018-08-13T03:40:33.353Z,19.80
2018-08-13T03:43:01.319Z,19.80
2018-08-13T03:45:29.268Z,19.60
2018-08-13T03:47:57.251Z,19.60
2018-08-13T03:50:25.217Z,19.60
2018-08-13T03:52:53.175Z,19.60
2018-08-13T03:55:21.158Z,19.70
2018-08-13T03:57:49.157Z,19.70
2018-08-13T04:00:17.163Z,19.80
2018-08-13T04:02:45.215Z,19.80
2018-08-13T04:05:14.118Z,19.70
2018-08-13T04:07:42.102Z,19.70
2018-08-13T04:10:11.666Z,19.80
2018-08-13T04:12:41.496Z,19.70
2018-08-13T04:15:10.870Z,19.50
2018-08-13T04:17:45.827Z,19.50
2018-08-13T04:20:14.771Z,19.40
2018-08-13T04:22:43.129Z,19.40
2018-08-13T04:25:11.585Z,19.50
2018-08-13T04:27:40.596Z,19.60
2018-08-13T04:30:11.828Z,19.60
2018-08-13T04:32:39.983Z,19.60
2018-08-13T04:35:08.280Z,19.60
2018-08-13T04:37:36.280Z,19.60
2018-08-13T04:40:06.974Z,19.70
2018-08-13T04:42:35.263Z,19.60
2018-08-13T04:45:03.242Z,19.60
2018-08-13T04:47:31.270Z,19.70
2018-08-13T04:49:59.415Z,19.80
2018-08-13T04:52:27.538Z,19.90
2018-08-13T04:54:55.516Z,19.80
2018-08-13T04:57:23.588Z,19.90
2018-08-13T04:59:53.689Z,19.90
2018-08-13T05:02:21.645Z,19.90
2018-08-13T05:04:49.659Z,20.00
2018-08-13T05:07:17.834Z,20.10
2018-08-13T05:09:45.774Z,20.10
2018-08-13T05:12:13.739Z,20.10
2018-08-13T05:14:42.153Z,20.20
2018-08-13T05:17:10.159Z,20.20
2018-08-13T05:19:38.125Z,20.30
2018-08-13T05:22:06.134Z,20.30
2018-08-13T05:24:34.118Z,20.30
2018-08-13T05:27:02.075Z,20.30
2018-08-13T05:29:30.384Z,20.40
2018-08-13T05:31:58.400Z,20.40
2018-08-13T05:34:26.402Z,20.50
2018-08-13T05:36:54.371Z,20.50
2018-08-13T05:39:22.332Z,20.60
2018-08-13T05:41:50.306Z,20.60
2018-08-13T05:44:18.275Z,20.60
2018-08-13T05:46:46.261Z,20.60
2018-08-13T05:49:14.324Z,20.60
2018-08-13T05:51:42.363Z,20.70
2018-08-13T05:54:10.359Z,20.60
2018-08-13T05:56:38.317Z,20.60
2018-08-13T05:59:06.373Z,20.60
2018-08-13T06:01:34.438Z,20.70
2018-08-13T06:04:02.440Z,20.70
2018-08-13T06:06:30.408Z,20.80
2018-08-13T06:08:58.712Z,20.80
2018-08-13T06:11:26.939Z,20.90
2018-08-13T06:13:54.758Z,20.90
2018-08-13T06:16:22.792Z,20.90
2018-08-13T06:18:50.752Z,21.00
2018-08-13T06:21:18.704Z,21.00
2018-08-13T06:26:20.119Z,21.10
2018-08-13T06:28:48.086Z,21.10
2018-08-13T06:31:16.563Z,21.10
2018-08-13T06:33:44.723Z,21.10
2018-08-13T06:36:12.866Z,21.10
2018-08-13T06:38:41.054Z,21.10
2018-08-13T06:41:09.228Z,21.10
2018-08-13T06:43:37.501Z,21.20
2018-08-13T06:46:05.713Z,21.20
2018-08-13T06:48:33.860Z,21.20
2018-08-13T06:51:01.859Z,21.20
2018-08-13T06:53:29.883Z,21.20
2018-08-13T06:55:57.820Z,21.20
2018-08-13T06:58:25.876Z,21.30
2018-08-13T07:00:53.998Z,21.30
2018-08-13T07:03:22.076Z,21.40
2018-08-13T07:05:50.120Z,21.40
2018-08-13T07:08:18.177Z,21.40
2018-08-13T07:10:46.137Z,21.40
2018-08-13T07:13:14.108Z,21.50
2018-08-13T07:15:42.118Z,21.50
2018-08-13T07:18:10.144Z,21.60
2018-08-13T07:20:38.110Z,21.60
2018-08-13T07:23:06.088Z,21.70
2018-08-13T07:25:34.155Z,21.70
2018-08-13T07:28:02.208Z,21.70
2018-08-13T07:30:30.969Z,21.70
2018-08-13T07:32:58.994Z,21.80
2018-08-13T07:35:26.960Z,21.80
2018-08-13T07:37:55.015Z,21.90
2018-08-13T07:40:22.971Z,21.90
2018-08-13T07:42:51.285Z,21.90
2018-08-13T07:45:19.249Z,22.00
2018-08-13T07:47:47.210Z,22.10
2018-08-13T07:50:15.722Z,22.10
2018-08-13T07:52:43.734Z,22.10
2018-08-13T07:55:12.489Z,22.10
2018-08-13T07:57:41.082Z,22.20
2018-08-13T08:00:11.569Z,22.20
2018-08-13T08:02:46.651Z,22.30
2018-08-13T08:05:14.881Z,22.30
2018-08-13T08:07:43.147Z,22.40
2018-08-13T08:10:13.075Z,22.40
2018-08-13T08:12:41.565Z,22.50
2018-08-13T08:15:13.059Z,22.50
2018-08-13T08:17:41.297Z,22.60
2018-08-13T08:20:09.463Z,22.70
2018-08-13T08:22:37.823Z,22.70
2018-08-13T08:25:08.458Z,22.70
2018-08-13T08:27:36.536Z,22.70
2018-08-13T08:30:05.946Z,22.80
2018-08-13T08:32:33.982Z,22.80
2018-08-13T08:35:01.951Z,22.80
2018-08-13T08:37:29.910Z,22.90
2018-08-13T08:39:57.875Z,22.90
2018-08-13T08:42:25.850Z,23.00
2018-08-13T08:44:53.829Z,23.10
2018-08-13T08:47:21.912Z,23.10
2018-08-13T08:49:49.863Z,23.20
2018-08-13T08:52:17.926Z,23.30
2018-08-13T08:54:45.922Z,23.40
2018-08-13T08:57:13.980Z,23.50
2018-08-13T08:59:41.977Z,23.60
2018-08-13T09:02:09.926Z,23.60
2018-08-13T09:04:38.445Z,23.70
2018-08-13T09:07:06.633Z,23.70
2018-08-13T09:09:34.636Z,23.70
2018-08-13T09:12:02.667Z,23.80
2018-08-13T09:14:30.939Z,23.80
2018-08-13T09:16:58.992Z,23.70
2018-08-13T09:19:38.519Z,23.70
2018-08-13T09:22:18.120Z,23.80
2018-08-13T09:24:57.762Z,23.80
2018-08-13T09:27:37.181Z,23.90
2018-08-13T09:30:16.826Z,23.90
2018-08-13T09:32:56.404Z,24.00
2018-08-13T09:35:26.590Z,24.00
2018-08-13T09:37:55.458Z,24.00
2018-08-13T09:40:23.873Z,24.00
2018-08-13T09:42:52.072Z,24.00
2018-08-13T09:45:19.998Z,24.10
2018-08-13T09:47:48.075Z,24.10
2018-08-13T09:50:17.168Z,24.20
2018-08-13T09:52:45.741Z,24.20
2018-08-13T09:55:14.755Z,24.20
2018-08-13T09:57:43.522Z,24.30
2018-08-13T10:00:17.882Z,24.40
2018-08-13T10:02:46.630Z,24.50
2018-08-13T10:05:14.619Z,24.50
2018-08-13T10:07:43.087Z,24.60
2018-08-13T10:10:11.596Z,24.60
2018-08-13T10:12:40.463Z,24.60
2018-08-13T10:15:09.466Z,24.60
2018-08-13T10:17:37.635Z,24.80
2018-08-13T10:20:07.517Z,24.90
2018-08-13T10:22:35.488Z,25.00
2018-08-13T10:25:04.263Z,25.00
2018-08-13T10:27:32.230Z,24.80
2018-08-13T10:30:00.184Z,25.00
2018-08-13T10:32:28.130Z,25.10
2018-08-13T10:34:56.189Z,25.10
2018-08-13T10:37:24.230Z,25.20
2018-08-13T10:39:52.240Z,25.20
2018-08-13T10:42:20.208Z,25.30
2018-08-13T10:44:48.263Z,25.40
2018-08-13T10:47:16.187Z,25.50
2018-08-13T10:49:44.519Z,25.60
2018-08-13T10:52:12.482Z,25.70
2018-08-13T10:54:40.437Z,25.80
2018-08-13T10:57:08.393Z,25.80
2018-08-13T10:59:36.374Z,25.90
2018-08-13T11:02:04.366Z,26.00
2018-08-13T11:04:32.336Z,26.10
2018-08-13T11:07:00.307Z,26.10
2018-08-13T11:09:28.262Z,26.10
2018-08-13T11:11:56.259Z,26.10
2018-08-13T11:14:24.260Z,26.00
2018-08-13T11:16:52.228Z,26.00
2018-08-13T11:19:20.197Z,26.10
2018-08-13T11:21:48.185Z,26.10
2018-08-13T11:24:16.132Z,26.10
2018-08-13T11:26:44.090Z,26.20
2018-08-13T11:29:12.451Z,26.10
2018-08-13T11:31:40.453Z,26.20
2018-08-13T11:34:08.420Z,26.30
2018-08-13T11:36:36.386Z,26.20
2018-08-13T11:39:07.798Z,26.20
2018-08-13T11:41:35.797Z,26.20
2018-08-13T11:44:07.724Z,26.20
2018-08-13T11:46:36.024Z,26.20
2018-08-13T11:49:04.597Z,26.30
2018-08-13T11:51:32.755Z,26.30
2018-08-13T11:54:00.939Z,26.30
2018-08-13T11:56:28.938Z,26.40
2018-08-13T11:58:56.994Z,26.40
2018-08-13T12:01:24.951Z,26.40
2018-08-13T12:03:53.132Z,26.50
2018-08-13T12:06:21.616Z,26.50
2018-08-13T12:08:49.559Z,26.50
2018-08-13T12:11:17.522Z,26.60
2018-08-13T12:13:45.527Z,26.60
2018-08-13T12:16:13.488Z,26.70
2018-08-13T12:18:41.452Z,26.80
2018-08-13T12:21:09.402Z,26.80
2018-08-13T12:23:37.979Z,26.80
2018-08-13T12:26:06.090Z,26.80
2018-08-13T12:28:34.057Z,26.80
2018-08-13T12:31:02.019Z,26.80
2018-08-13T12:33:30.756Z,26.80
2018-08-13T12:35:58.725Z,26.90
2018-08-13T12:38:26.678Z,27.00
2018-08-13T12:40:54.766Z,27.00
2018-08-13T12:43:22.845Z,27.10
2018-08-13T12:45:50.810Z,27.10
2018-08-13T12:48:19.052Z,27.10
2018-08-13T12:50:47.027Z,27.20
2018-08-13T12:53:15.021Z,27.30
2018-08-13T12:55:43.059Z,27.30
2018-08-13T12:58:11.025Z,27.40
2018-08-13T13:00:43.200Z,27.40
2018-08-13T13:03:11.300Z,27.50
2018-08-13T13:05:39.338Z,27.50
2018-08-13T13:08:07.711Z,27.60
2018-08-13T13:10:36.421Z,27.60
2018-08-13T13:13:04.379Z,27.70
2018-08-13T13:15:32.453Z,27.80
2018-08-13T13:18:00.391Z,27.90
2018-08-13T13:20:28.508Z,27.90
2018-08-13T13:22:56.498Z,27.90
2018-08-13T13:25:24.455Z,28.00
2018-08-13T13:27:52.487Z,28.00
2018-08-13T13:30:20.495Z,28.10
2018-08-13T13:32:48.468Z,28.10
2018-08-13T13:35:17.432Z,28.20
2018-08-13T13:37:45.461Z,28.20
2018-08-13T13:40:15.355Z,28.30
2018-08-13T13:42:43.895Z,28.30
2018-08-13T13:45:12.533Z,28.30
2018-08-13T13:47:40.557Z,28.30
2018-08-13T13:50:10.405Z,28.30
2018-08-13T13:52:38.340Z,28.30
2018-08-13T13:55:06.734Z,28.30
2018-08-13T13:57:34.788Z,28.30
2018-08-13T14:00:02.760Z,28.20
2018-08-13T14:02:30.768Z,28.20
2018-08-13T14:04:58.820Z,28.20
2018-08-13T14:07:26.898Z,28.20
2018-08-13T14:09:54.945Z,28.20
2018-08-13T14:12:22.958Z,28.20
2018-08-13T14:14:50.957Z,28.20
2018-08-13T14:17:18.967Z,28.10
2018-08-13T14:19:46.936Z,28.10
2018-08-13T14:22:14.879Z,28.10
2018-08-13T14:24:43.239Z,28.10
2018-08-13T14:27:11.203Z,28.10
2018-08-13T14:29:39.210Z,28.10
2018-08-13T14:32:10.567Z,28.10
2018-08-13T14:34:38.519Z,28.10
2018-08-13T14:37:06.606Z,28.10
2018-08-13T14:39:34.817Z,28.10
2018-08-13T14:42:03.032Z,28.10
2018-08-13T14:44:31.004Z,28.10
2018-08-13T14:46:58.948Z,28.20
2018-08-13T14:49:27.263Z,28.20
2018-08-13T14:51:55.246Z,28.20
2018-08-13T14:54:23.325Z,28.20
2018-08-13T14:56:51.336Z,28.20
2018-08-13T14:59:19.309Z,28.20
2018-08-13T15:01:47.289Z,28.20
2018-08-13T15:04:15.497Z,28.30
2018-08-13T15:06:43.478Z,28.30
2018-08-13T15:09:11.625Z,28.20
2018-08-13T15:11:40.579Z,28.20
2018-08-13T15:14:15.794Z,28.10
2018-08-13T15:16:43.767Z,28.00
2018-08-13T15:19:12.079Z,28.00
2018-08-13T15:21:40.029Z,28.00
2018-08-13T15:24:07.989Z,28.00
2018-08-13T15:26:36.002Z,27.90
2018-08-13T15:29:04.284Z,27.90
2018-08-13T15:31:32.278Z,27.90
2018-08-13T15:34:00.327Z,27.90
2018-08-13T15:36:28.630Z,27.90
2018-08-13T15:38:56.761Z,27.80
2018-08-13T15:41:24.832Z,27.70
2018-08-13T15:43:52.841Z,27.60
2018-08-13T15:46:20.988Z,27.50
2018-08-13T15:48:48.941Z,27.50
2018-08-13T15:51:17.016Z,27.40
2018-08-13T15:53:45.140Z,27.30
2018-08-13T15:56:13.158Z,27.30
2018-08-13T15:58:42.113Z,27.30
2018-08-13T16:01:10.184Z,27.20
2018-08-13T16:03:38.264Z,27.10
2018-08-13T16:08:34.116Z,27.00
2018-08-13T16:11:02.586Z,26.90
2018-08-13T16:13:30.554Z,27.00
2018-08-13T16:15:58.805Z,26.90
2018-08-13T16:18:26.814Z,27.00
2018-08-13T16:20:54.832Z,27.00
2018-08-13T16:23:22.884Z,27.00
2018-08-13T16:25:50.896Z,26.90
2018-08-13T16:28:18.863Z,26.90
2018-08-13T16:30:46.862Z,26.80
2018-08-13T16:33:15.213Z,26.80
2018-08-13T16:35:43.278Z,26.80
2018-08-13T16:38:11.846Z,26.80
2018-08-13T16:40:40.035Z,26.70
2018-08-13T16:43:08.049Z,26.70
2018-08-13T16:45:36.095Z,26.80
2018-08-13T16:48:04.233Z,26.80
2018-08-13T16:50:33.453Z,26.80
2018-08-13T16:53:01.651Z,26.80
2018-08-13T16:55:30.679Z,26.70
2018-08-13T16:58:00.123Z,26.60
2018-08-13T17:00:29.524Z,26.60
2018-08-13T17:02:57.921Z,26.60
2018-08-13T17:05:26.120Z,26.60
2018-08-13T17:07:54.184Z,26.60
2018-08-13T17:10:23.763Z,26.50
2018-08-13T17:12:52.459Z,26.40
2018-08-13T17:15:20.955Z,26.30
2018-08-13T17:17:50.532Z,26.30
2018-08-13T17:20:23.140Z,26.20
2018-08-13T17:22:51.207Z,26.10
2018-08-13T17:25:19.248Z,26.10
2018-08-13T17:27:49.721Z,26.10
2018-08-13T17:30:21.244Z,26.20
2018-08-13T17:32:50.771Z,26.10
2018-08-13T17:35:21.687Z,26.20
2018-08-13T17:37:49.792Z,26.30
2018-08-13T17:40:20.311Z,26.30
2018-08-13T17:42:48.518Z,26.30
2018-08-13T17:45:16.432Z,26.30
2018-08-13T17:47:44.407Z,26.40
2018-08-13T17:50:14.112Z,26.40
2018-08-13T17:52:42.404Z,26.30
2018-08-13T17:55:11.146Z,26.30
2018-08-13T17:57:39.659Z,26.30
2018-08-13T18:00:11.346Z,26.30
2018-08-13T18:02:39.596Z,26.30
2018-08-13T18:05:09.814Z,26.30
2018-08-13T18:07:38.893Z,26.20
2018-08-13T18:10:09.814Z,26.20
2018-08-13T18:12:38.148Z,26.10
2018-08-13T18:15:09.159Z,26.10
2018-08-13T18:17:37.467Z,26.10
2018-08-13T18:20:06.427Z,26.10
2018-08-13T18:22:34.929Z,26.10
2018-08-13T18:25:02.990Z,26.10
2018-08-13T18:27:31.449Z,26.10
2018-08-13T18:29:59.762Z,26.00
2018-08-13T18:32:27.816Z,26.00
2018-08-13T18:34:56.516Z,25.90
2018-08-13T18:37:24.559Z,25.90
2018-08-13T18:39:52.867Z,25.90
2018-08-13T18:42:20.832Z,25.80
2018-08-13T18:44:48.800Z,25.90
2018-08-13T18:47:17.084Z,25.90
2018-08-13T18:49:45.924Z,25.90
2018-08-13T18:52:14.606Z,25.80
2018-08-13T18:54:42.726Z,25.80
2018-08-13T18:57:10.813Z,25.60
2018-08-13T18:59:38.858Z,25.60
2018-08-13T19:02:06.963Z,25.50
2018-08-13T19:04:34.980Z,25.60
2018-08-13T19:07:03.088Z,25.60
2018-08-13T19:09:31.146Z,25.60
2018-08-13T19:11:59.268Z,25.60
2018-08-13T19:14:27.185Z,25.60
2018-08-13T19:16:55.166Z,25.60
2018-08-13T19:19:23.253Z,25.60
2018-08-13T19:21:55.615Z,25.60
2018-08-13T19:24:23.616Z,25.60
2018-08-13T19:26:51.614Z,25.60
2018-08-13T19:29:19.964Z,25.50
2018-08-13T19:31:48.409Z,25.60
2018-08-13T19:34:16.507Z,25.50
2018-08-13T19:36:44.476Z,25.50
2018-08-13T19:39:13.567Z,25.50
2018-08-13T19:41:42.080Z,25.50
2018-08-13T19:44:10.785Z,25.50
2018-08-13T19:46:38.878Z,25.50
2018-08-13T19:49:06.992Z,25.50
2018-08-13T19:51:35.377Z,25.40
2018-08-13T19:54:03.382Z,25.30
2018-08-13T19:56:31.461Z,25.30
2018-08-13T19:59:00.167Z,25.30
2018-08-13T20:01:28.825Z,25.30
2018-08-13T20:03:57.448Z,25.30
2018-08-13T20:06:26.335Z,25.30
2018-08-13T20:08:54.812Z,25.30
2018-08-13T20:11:23.333Z,25.30
2018-08-13T20:13:51.884Z,25.20
2018-08-13T20:16:21.360Z,25.20
2018-08-13T20:18:49.847Z,25.10
2018-08-13T20:21:17.835Z,25.10
2018-08-13T20:23:45.883Z,25.10
2018-08-13T20:26:14.027Z,25.10
2018-08-13T20:28:42.022Z,24.90
2018-08-13T20:31:10.158Z,24.90
2018-08-13T20:33:38.120Z,24.90
2018-08-13T20:36:07.220Z,24.90
2018-08-13T20:38:35.159Z,24.90
2018-08-13T20:41:03.196Z,24.90
2018-08-13T20:43:31.164Z,24.90
2018-08-13T20:45:59.141Z,24.80
2018-08-13T20:48:27.098Z,24.80
2018-08-13T20:50:55.080Z,24.80
2018-08-13T20:53:23.191Z,24.70
2018-08-13T20:55:51.140Z,24.70
2018-08-13T20:58:19.081Z,24.70
2018-08-13T21:00:47.419Z,24.60
2018-08-13T21:03:15.362Z,24.70
2018-08-13T21:05:43.400Z,24.70
2018-08-13T21:08:11.371Z,24.70
2018-08-13T21:10:39.337Z,24.70
2018-08-13T21:13:07.368Z,24.70
2018-08-13T21:15:35.418Z,24.60
2018-08-13T21:18:03.407Z,24.50
2018-08-13T21:20:31.384Z,24.50
2018-08-13T21:22:59.391Z,24.50
2018-08-13T21:25:27.359Z,24.40
2018-08-13T21:27:55.323Z,24.50
2018-08-13T21:30:23.265Z,24.50
2018-08-13T21:32:51.230Z,24.50
2018-08-13T21:35:21.675Z,24.50
2018-08-13T21:37:49.747Z,24.40
2018-08-13T21:40:17.711Z,24.40
2018-08-13T21:42:45.880Z,24.40
2018-08-13T21:45:13.935Z,24.40
2018-08-13T21:47:41.937Z,24.40
2018-08-13T21:50:14.586Z,24.40
2018-08-13T21:52:42.553Z,24.40
2018-08-13T21:55:10.845Z,24.40
2018-08-13T21:57:39.356Z,24.30
2018-08-13T22:00:13.448Z,24.30
2018-08-13T22:02:41.406Z,24.30
2018-08-13T22:05:09.383Z,24.30
2018-08-13T22:07:37.459Z,24.20
2018-08-13T22:10:07.623Z,24.20
2018-08-13T22:12:35.564Z,24.10
2018-08-13T22:15:13.141Z,24.20
2018-08-13T22:17:41.109Z,24.20
2018-08-13T22:20:09.097Z,24.20
2018-08-13T22:22:37.049Z,24.20
2018-08-13T22:25:07.899Z,24.10
2018-08-13T22:27:35.854Z,24.10
2018-08-13T22:30:05.977Z,24.10
2018-08-13T22:32:34.673Z,24.00
2018-08-13T22:35:02.778Z,24.00
2018-08-13T22:37:30.748Z,23.90
2018-08-13T22:39:58.673Z,24.00
2018-08-13T22:42:26.638Z,24.00
2018-08-13T22:44:54.603Z,24.00
2018-08-13T22:47:22.610Z,24.00
2018-08-13T22:49:50.559Z,23.90
2018-08-13T22:52:18.500Z,23.90
2018-08-13T22:54:46.473Z,23.90
2018-08-13T22:57:14.468Z,23.80
2018-08-13T22:59:43.527Z,23.80
2018-08-13T23:02:11.586Z,23.90
2018-08-13T23:04:39.566Z,23.90
2018-08-13T23:07:07.659Z,23.80
2018-08-13T23:09:35.624Z,23.70
2018-08-13T23:12:07.290Z,23.70
2018-08-13T23:14:35.271Z,23.80
2018-08-13T23:17:03.246Z,23.80
2018-08-13T23:19:31.195Z,23.70
2018-08-13T23:21:59.585Z,23.70
2018-08-13T23:24:27.619Z,23.70
2018-08-13T23:26:55.858Z,23.60
2018-08-13T23:29:23.820Z,23.60
2018-08-13T23:31:51.806Z,23.60
2018-08-13T23:34:19.808Z,23.60
2018-08-13T23:36:48.175Z,23.60
2018-08-13T23:39:16.252Z,23.60
2018-08-13T23:41:44.353Z,23.50
2018-08-13T23:44:12.433Z,23.50
2018-08-13T23:46:40.705Z,23.40
2018-08-13T23:49:08.702Z,23.40
2018-08-13T23:51:36.662Z,23.40
2018-08-13T23:54:04.599Z,23.40
2018-08-13T23:56:32.575Z,23.40
2018-08-13T23:59:00.540Z,23.40
